sensor_id;sensor_type;location;lat;lon;timestamp;pressure;altitude;pressure_sealevel;temperature;humidity
72285;BME280;60220;53.552;10.092;2022-12-31T00:01:03;99937.13;;;11.71;83.22
72285;BME280;60220;53.552;10.092;2022-12-31T00:03:32;99944.53;;;11.29;84.31
72285;BME280;60220;53.552;10.092;2022-12-31T00:06:01;99958.59;;;11.57;83.18
72285;BME280;60220;53.552;10.092;2022-12-31T00:08:37;99951.56;;;11.58;83.43
72285;BME280;60220;53.552;10.092;2022-12-31T00:11:06;99952.19;;;11.66;82.81
72285;BME280;60220;53.552;10.092;2022-12-31T00:13:32;99953.88;;;11.69;82.38
72285;BME280;60220;53.552;10.092;2022-12-31T00:16:05;99955.91;;;12.16;81.21
72285;BME280;60220;53.552;10.092;2022-12-31T00:18:33;99963.06;;;11.55;83.16
72285;BME280;60220;53.552;10.092;2022-12-31T00:21:03;99957.31;;;11.71;82.93
72285;BME280;60220;53.552;10.092;2022-12-31T00:23:30;99964.56;;;11.62;83.36
72285;BME280;60220;53.552;10.092;2022-12-31T00:26:01;99967.72;;;12.04;81.35
72285;BME280;60220;53.552;10.092;2022-12-31T00:28:28;99964.28;;;11.72;83.07
72285;BME280;60220;53.552;10.092;2022-12-31T00:30:54;99970.09;;;11.53;83.40
72285;BME280;60220;53.552;10.092;2022-12-31T00:33:21;99979.31;;;11.37;84.33
72285;BME280;60220;53.552;10.092;2022-12-31T00:35:49;99977.91;;;11.86;82.41
72285;BME280;60220;53.552;10.092;2022-12-31T00:38:16;99982.91;;;11.95;82.14
72285;BME280;60220;53.552;10.092;2022-12-31T00:40:42;99979.44;;;11.63;82.65
72285;BME280;60220;53.552;10.092;2022-12-31T00:43:09;99984.44;;;12.02;81.94
72285;BME280;60220;53.552;10.092;2022-12-31T00:45:35;99986.16;;;12.03;81.34
72285;BME280;60220;53.552;10.092;2022-12-31T00:48:02;99987.97;;;11.72;82.42
72285;BME280;60220;53.552;10.092;2022-12-31T00:50:29;99988.03;;;11.99;81.72
72285;BME280;60220;53.552;10.092;2022-12-31T00:52:57;99985.81;;;11.86;82.37
72285;BME280;60220;53.552;10.092;2022-12-31T00:55:24;99977.69;;;11.93;82.37
72285;BME280;60220;53.552;10.092;2022-12-31T00:57:50;99975.50;;;12.07;81.61
72285;BME280;60220;53.552;10.092;2022-12-31T01:00:17;99976.78;;;12.22;80.81
72285;BME280;60220;53.552;10.092;2022-12-31T01:02:44;99984.88;;;11.88;81.80
72285;BME280;60220;53.552;10.092;2022-12-31T01:05:10;99986.88;;;12.08;81.70
72285;BME280;60220;53.552;10.092;2022-12-31T01:07:37;99985.19;;;12.33;79.99
72285;BME280;60220;53.552;10.092;2022-12-31T01:10:06;99990.28;;;12.39;80.76
72285;BME280;60220;53.552;10.092;2022-12-31T01:12:33;99992.41;;;12.55;79.67
72285;BME280;60220;53.552;10.092;2022-12-31T01:15:00;99994.84;;;12.33;79.68
72285;BME280;60220;53.552;10.092;2022-12-31T01:17:26;99991.56;;;12.26;79.98
72285;BME280;60220;53.552;10.092;2022-12-31T01:19:53;99994.66;;;12.11;81.02
72285;BME280;60220;53.552;10.092;2022-12-31T01:22:20;100000.09;;;12.34;81.27
72285;BME280;60220;53.552;10.092;2022-12-31T01:24:49;100006.63;;;12.49;80.10
72285;BME280;60220;53.552;10.092;2022-12-31T01:27:17;100011.41;;;12.36;80.90
72285;BME280;60220;53.552;10.092;2022-12-31T01:29:43;100013.38;;;12.56;80.50
72285;BME280;60220;53.552;10.092;2022-12-31T01:32:10;100015.97;;;12.58;79.96
72285;BME280;60220;53.552;10.092;2022-12-31T01:34:37;100011.47;;;12.35;81.37
72285;BME280;60220;53.552;10.092;2022-12-31T01:37:03;100020.13;;;12.38;81.55
72285;BME280;60220;53.552;10.092;2022-12-31T01:39:30;100020.59;;;12.23;82.44
72285;BME280;60220;53.552;10.092;2022-12-31T01:41:57;100014.56;;;12.47;80.89
72285;BME280;60220;53.552;10.092;2022-12-31T01:44:58;100018.69;;;12.28;82.28
72285;BME280;60220;53.552;10.092;2022-12-31T01:47:33;100012.25;;;12.65;81.29
72285;BME280;60220;53.552;10.092;2022-12-31T01:50:06;100014.81;;;12.66;81.20
72285;BME280;60220;53.552;10.092;2022-12-31T01:52:36;100026.16;;;12.94;79.71
72285;BME280;60220;53.552;10.092;2022-12-31T01:55:08;100017.38;;;12.15;82.10
72285;BME280;60220;53.552;10.092;2022-12-31T01:57:41;100012.63;;;12.52;81.25
72285;BME280;60220;53.552;10.092;2022-12-31T02:00:11;100012.97;;;12.70;79.94
72285;BME280;60220;53.552;10.092;2022-12-31T02:02:38;100016.16;;;12.79;79.92
72285;BME280;60220;53.552;10.092;2022-12-31T02:05:12;100009.84;;;12.57;80.60
72285;BME280;60220;53.552;10.092;2022-12-31T02:07:42;100010.91;;;12.51;80.40
72285;BME280;60220;53.552;10.092;2022-12-31T02:10:12;100015.31;;;12.51;80.49
72285;BME280;60220;53.552;10.092;2022-12-31T02:12:39;100012.75;;;12.22;80.88
72285;BME280;60220;53.552;10.092;2022-12-31T02:15:06;100010.22;;;12.73;80.04
72285;BME280;60220;53.552;10.092;2022-12-31T02:17:45;100007.25;;;12.29;81.12
72285;BME280;60220;53.552;10.092;2022-12-31T02:20:35;100011.88;;;12.49;81.15
72285;BME280;60220;53.552;10.092;2022-12-31T02:23:23;100006.63;;;12.49;82.15
72285;BME280;60220;53.552;10.092;2022-12-31T02:26:08;100015.22;;;12.26;83.76
72285;BME280;60220;53.552;10.092;2022-12-31T02:28:56;100020.19;;;12.35;84.03
72285;BME280;60220;53.552;10.092;2022-12-31T02:31:31;100005.38;;;12.33;83.04
72285;BME280;60220;53.552;10.092;2022-12-31T02:34:04;100009.59;;;12.38;84.31
72285;BME280;60220;53.552;10.092;2022-12-31T02:36:34;100012.09;;;12.15;84.51
72285;BME280;60220;53.552;10.092;2022-12-31T02:39:03;100010.59;;;12.34;84.61
72285;BME280;60220;53.552;10.092;2022-12-31T02:41:32;100014.25;;;12.57;84.28
72285;BME280;60220;53.552;10.092;2022-12-31T02:44:22;100006.91;;;12.12;86.32
72285;BME280;60220;53.552;10.092;2022-12-31T02:47:05;100007.34;;;12.26;85.96
72285;BME280;60220;53.552;10.092;2022-12-31T02:49:43;100021.97;;;12.07;87.15
72285;BME280;60220;53.552;10.092;2022-12-31T02:52:19;100005.53;;;12.28;87.78
72285;BME280;60220;53.552;10.092;2022-12-31T02:54:54;100003.66;;;12.32;86.98
72285;BME280;60220;53.552;10.092;2022-12-31T02:57:29;100006.16;;;12.08;88.06
72285;BME280;60220;53.552;10.092;2022-12-31T03:00:01;100000.31;;;12.55;86.57
72285;BME280;60220;53.552;10.092;2022-12-31T03:02:49;99998.00;;;12.16;88.04
72285;BME280;60220;53.552;10.092;2022-12-31T03:05:20;100001.78;;;12.35;86.68
72285;BME280;60220;53.552;10.092;2022-12-31T03:07:48;100016.22;;;12.76;86.48
72285;BME280;60220;53.552;10.092;2022-12-31T03:10:17;100013.22;;;12.06;87.87
72285;BME280;60220;53.552;10.092;2022-12-31T03:12:47;100016.72;;;12.07;90.58
72285;BME280;60220;53.552;10.092;2022-12-31T03:15:15;100032.41;;;11.81;92.01
72285;BME280;60220;53.552;10.092;2022-12-31T03:17:58;100026.94;;;12.16;90.95
72285;BME280;60220;53.552;10.092;2022-12-31T03:20:29;100030.34;;;11.92;90.97
72285;BME280;60220;53.552;10.092;2022-12-31T03:23:19;100030.84;;;12.04;89.97
72285;BME280;60220;53.552;10.092;2022-12-31T03:25:50;100015.06;;;12.32;90.30
72285;BME280;60220;53.552;10.092;2022-12-31T03:28:20;100002.88;;;12.00;90.33
72285;BME280;60220;53.552;10.092;2022-12-31T03:30:54;100007.47;;;12.49;87.75
72285;BME280;60220;53.552;10.092;2022-12-31T03:33:28;100016.44;;;12.16;88.78
72285;BME280;60220;53.552;10.092;2022-12-31T03:36:01;100011.03;;;12.48;87.47
72285;BME280;60220;53.552;10.092;2022-12-31T03:38:28;100013.53;;;12.25;87.54
72285;BME280;60220;53.552;10.092;2022-12-31T03:40:54;100016.47;;;11.87;88.78
72285;BME280;60220;53.552;10.092;2022-12-31T03:43:21;100005.38;;;11.76;90.19
72285;BME280;60220;53.552;10.092;2022-12-31T03:45:51;100014.03;;;12.36;90.02
72285;BME280;60220;53.552;10.092;2022-12-31T03:48:21;100020.78;;;12.17;88.40
72285;BME280;60220;53.552;10.092;2022-12-31T03:50:50;100019.56;;;12.29;88.86
72285;BME280;60220;53.552;10.092;2022-12-31T03:53:16;100015.81;;;12.08;89.27
72285;BME280;60220;53.552;10.092;2022-12-31T03:55:51;100008.13;;;11.73;90.29
72285;BME280;60220;53.552;10.092;2022-12-31T03:58:20;100012.41;;;12.32;89.90
72285;BME280;60220;53.552;10.092;2022-12-31T04:00:47;100023.94;;;12.28;88.51
72285;BME280;60220;53.552;10.092;2022-12-31T04:03:14;100011.41;;;12.36;87.88
72285;BME280;60220;53.552;10.092;2022-12-31T04:05:41;100012.03;;;11.89;89.90
72285;BME280;60220;53.552;10.092;2022-12-31T04:08:16;100014.56;;;12.47;89.01
72285;BME280;60220;53.552;10.092;2022-12-31T04:10:46;100012.94;;;12.43;88.80
72285;BME280;60220;53.552;10.092;2022-12-31T04:13:12;100033.28;;;11.81;90.61
72285;BME280;60220;53.552;10.092;2022-12-31T04:15:42;100024.03;;;11.66;92.41
72285;BME280;60220;53.552;10.092;2022-12-31T04:18:11;100021.22;;;12.31;90.54
72285;BME280;60220;53.552;10.092;2022-12-31T04:20:37;100021.84;;;12.39;89.68
72285;BME280;60220;53.552;10.092;2022-12-31T04:23:06;100027.63;;;12.50;88.43
72285;BME280;60220;53.552;10.092;2022-12-31T04:25:34;100046.38;;;12.12;90.11
72285;BME280;60220;53.552;10.092;2022-12-31T04:28:03;100047.88;;;11.91;90.47
72285;BME280;60220;53.552;10.092;2022-12-31T04:30:30;100041.03;;;12.15;90.17
72285;BME280;60220;53.552;10.092;2022-12-31T04:32:59;100044.97;;;12.00;89.76
72285;BME280;60220;53.552;10.092;2022-12-31T04:35:28;100051.00;;;12.33;90.44
72285;BME280;60220;53.552;10.092;2022-12-31T04:37:58;100052.66;;;12.36;90.36
72285;BME280;60220;53.552;10.092;2022-12-31T04:40:27;100061.13;;;11.88;90.79
72285;BME280;60220;53.552;10.092;2022-12-31T04:42:55;100051.34;;;12.21;90.73
72285;BME280;60220;53.552;10.092;2022-12-31T04:45:27;100048.22;;;12.10;91.22
72285;BME280;60220;53.552;10.092;2022-12-31T04:47:53;100056.50;;;11.65;92.62
72285;BME280;60220;53.552;10.092;2022-12-31T04:50:23;100067.16;;;11.92;92.60
72285;BME280;60220;53.552;10.092;2022-12-31T04:52:51;100070.19;;;11.78;92.11
72285;BME280;60220;53.552;10.092;2022-12-31T04:55:18;100053.34;;;11.53;93.41
72285;BME280;60220;53.552;10.092;2022-12-31T04:57:46;100040.19;;;11.54;93.34
72285;BME280;60220;53.552;10.092;2022-12-31T05:00:17;100050.09;;;11.76;92.31
72285;BME280;60220;53.552;10.092;2022-12-31T05:02:43;100044.91;;;12.31;89.67
72285;BME280;60220;53.552;10.092;2022-12-31T05:05:15;100042.66;;;12.19;88.94
72285;BME280;60220;53.552;10.092;2022-12-31T05:07:45;100045.34;;;11.57;89.65
72285;BME280;60220;53.552;10.092;2022-12-31T05:10:15;100049.06;;;11.81;90.74
72285;BME280;60220;53.552;10.092;2022-12-31T05:12:44;100064.88;;;11.47;91.72
72285;BME280;60220;53.552;10.092;2022-12-31T05:15:11;100052.81;;;11.73;91.11
72285;BME280;60220;53.552;10.092;2022-12-31T05:17:42;100042.03;;;11.82;89.64
72285;BME280;60220;53.552;10.092;2022-12-31T05:20:13;100034.94;;;11.85;89.95
72285;BME280;60220;53.552;10.092;2022-12-31T05:22:42;100030.41;;;11.90;89.95
72285;BME280;60220;53.552;10.092;2022-12-31T05:25:08;100013.09;;;11.51;90.06
72285;BME280;60220;53.552;10.092;2022-12-31T05:27:38;99999.59;;;11.94;89.09
72285;BME280;60220;53.552;10.092;2022-12-31T05:30:06;100000.78;;;11.84;88.66
72285;BME280;60220;53.552;10.092;2022-12-31T05:32:36;99980.38;;;11.92;88.77
72285;BME280;60220;53.552;10.092;2022-12-31T05:35:07;99981.09;;;11.97;88.42
72285;BME280;60220;53.552;10.092;2022-12-31T05:37:34;99976.97;;;12.16;87.90
72285;BME280;60220;53.552;10.092;2022-12-31T05:40:01;99973.75;;;12.34;86.87
72285;BME280;60220;53.552;10.092;2022-12-31T05:42:30;99975.91;;;11.95;88.09
72285;BME280;60220;53.552;10.092;2022-12-31T05:44:56;99997.53;;;12.31;87.53
72285;BME280;60220;53.552;10.092;2022-12-31T05:47:26;100010.25;;;11.89;88.38
72285;BME280;60220;53.552;10.092;2022-12-31T05:49:52;100019.59;;;11.99;88.48
72285;BME280;60220;53.552;10.092;2022-12-31T05:52:21;100046.19;;;11.90;88.99
72285;BME280;60220;53.552;10.092;2022-12-31T05:54:47;100048.09;;;11.53;89.54
72285;BME280;60220;53.552;10.092;2022-12-31T05:57:16;100054.59;;;11.71;90.04
72285;BME280;60220;53.552;10.092;2022-12-31T05:59:43;100051.31;;;11.95;88.81
72285;BME280;60220;53.552;10.092;2022-12-31T06:02:09;100060.59;;;11.76;89.41
72285;BME280;60220;53.552;10.092;2022-12-31T06:04:38;100061.53;;;11.42;90.77
72285;BME280;60220;53.552;10.092;2022-12-31T06:07:05;100058.50;;;11.25;91.72
72285;BME280;60220;53.552;10.092;2022-12-31T06:09:33;100059.19;;;11.32;92.05
72285;BME280;60220;53.552;10.092;2022-12-31T06:11:59;100068.50;;;11.11;92.45
72285;BME280;60220;53.552;10.092;2022-12-31T06:14:28;100059.13;;;11.65;92.14
72285;BME280;60220;53.552;10.092;2022-12-31T06:16:55;100065.97;;;11.40;91.70
72285;BME280;60220;53.552;10.092;2022-12-31T06:19:21;100077.22;;;11.45;91.06
72285;BME280;60220;53.552;10.092;2022-12-31T06:21:50;100078.94;;;11.46;91.29
72285;BME280;60220;53.552;10.092;2022-12-31T06:24:17;100087.28;;;10.96;92.61
72285;BME280;60220;53.552;10.092;2022-12-31T06:26:47;100096.38;;;11.16;92.53
72285;BME280;60220;53.552;10.092;2022-12-31T06:29:16;100097.47;;;11.08;92.59
72285;BME280;60220;53.552;10.092;2022-12-31T06:31:43;100101.03;;;11.39;91.71
72285;BME280;60220;53.552;10.092;2022-12-31T06:34:09;100099.25;;;11.06;91.78
72285;BME280;60220;53.552;10.092;2022-12-31T06:36:36;100090.56;;;11.04;93.18
72285;BME280;60220;53.552;10.092;2022-12-31T06:39:03;100089.75;;;11.02;92.11
72285;BME280;60220;53.552;10.092;2022-12-31T06:41:31;100084.81;;;10.90;92.74
72285;BME280;60220;53.552;10.092;2022-12-31T06:43:59;100092.72;;;11.22;91.92
72285;BME280;60220;53.552;10.092;2022-12-31T06:46:25;100078.97;;;11.12;91.58
72285;BME280;60220;53.552;10.092;2022-12-31T06:48:52;100085.00;;;11.16;91.18
72285;BME280;60220;53.552;10.092;2022-12-31T06:51:20;100101.69;;;10.79;92.33
72285;BME280;60220;53.552;10.092;2022-12-31T06:53:48;100081.59;;;11.12;91.57
72285;BME280;60220;53.552;10.092;2022-12-31T06:56:17;100072.16;;;11.05;91.21
72285;BME280;60220;53.552;10.092;2022-12-31T06:58:47;100080.06;;;11.04;91.52
72285;BME280;60220;53.552;10.092;2022-12-31T07:01:42;100077.72;;;10.93;91.93
72285;BME280;60220;53.552;10.092;2022-12-31T07:04:30;100070.31;;;11.09;91.75
72285;BME280;60220;53.552;10.092;2022-12-31T07:07:06;100072.56;;;11.22;90.47
72285;BME280;60220;53.552;10.092;2022-12-31T07:09:38;100057.56;;;11.28;89.29
72285;BME280;60220;53.552;10.092;2022-12-31T07:12:25;100062.91;;;10.91;91.09
72285;BME280;60220;53.552;10.092;2022-12-31T07:15:01;100066.50;;;10.87;91.57
72285;BME280;60220;53.552;10.092;2022-12-31T07:17:37;100066.69;;;10.79;91.34
72285;BME280;60220;53.552;10.092;2022-12-31T07:20:10;100090.00;;;10.91;91.10
72285;BME280;60220;53.552;10.092;2022-12-31T07:22:39;100092.84;;;10.84;91.84
72285;BME280;60220;53.552;10.092;2022-12-31T07:25:12;100105.81;;;10.90;91.67
72285;BME280;60220;53.552;10.092;2022-12-31T07:27:52;100120.34;;;10.67;92.13
72285;BME280;60220;53.552;10.092;2022-12-31T07:30:27;100110.03;;;10.60;92.88
72285;BME280;60220;53.552;10.092;2022-12-31T07:33:11;100103.91;;;10.59;92.95
72285;BME280;60220;53.552;10.092;2022-12-31T07:35:44;100091.56;;;10.64;93.12
72285;BME280;60220;53.552;10.092;2022-12-31T07:38:21;100097.22;;;10.83;92.80
72285;BME280;60220;53.552;10.092;2022-12-31T07:40:58;100099.69;;;10.91;91.52
72285;BME280;60220;53.552;10.092;2022-12-31T07:43:31;100103.63;;;10.71;92.14
72285;BME280;60220;53.552;10.092;2022-12-31T07:46:11;100108.72;;;10.77;92.43
72285;BME280;60220;53.552;10.092;2022-12-31T07:48:40;100102.88;;;11.02;92.54
72285;BME280;60220;53.552;10.092;2022-12-31T07:51:10;100092.63;;;10.91;92.45
72285;BME280;60220;53.552;10.092;2022-12-31T07:53:37;100099.69;;;10.91;92.38
72285;BME280;60220;53.552;10.092;2022-12-31T07:56:05;100109.44;;;10.84;92.09
72285;BME280;60220;53.552;10.092;2022-12-31T07:58:46;100108.38;;;10.91;92.67
72285;BME280;60220;53.552;10.092;2022-12-31T08:01:28;100107.72;;;10.83;92.73
72285;BME280;60220;53.552;10.092;2022-12-31T08:04:01;100097.06;;;10.89;93.02
72285;BME280;60220;53.552;10.092;2022-12-31T08:06:37;100103.47;;;10.77;92.80
72285;BME280;60220;53.552;10.092;2022-12-31T08:09:11;100114.88;;;10.76;92.87
72285;BME280;60220;53.552;10.092;2022-12-31T08:11:47;100115.19;;;11.00;92.53
72285;BME280;60220;53.552;10.092;2022-12-31T08:14:17;100111.59;;;10.67;93.60
72285;BME280;60220;53.552;10.092;2022-12-31T08:16:45;100118.91;;;10.54;93.71
72285;BME280;60220;53.552;10.092;2022-12-31T08:19:21;100113.16;;;10.75;93.48
72285;BME280;60220;53.552;10.092;2022-12-31T08:21:57;100104.94;;;10.52;93.50
72285;BME280;60220;53.552;10.092;2022-12-31T08:24:35;100098.06;;;10.47;94.27
72285;BME280;60220;53.552;10.092;2022-12-31T08:27:08;100115.72;;;10.78;93.59
72285;BME280;60220;53.552;10.092;2022-12-31T08:29:45;100113.72;;;10.51;95.13
72285;BME280;60220;53.552;10.092;2022-12-31T08:32:19;100102.72;;;10.72;93.65
72285;BME280;60220;53.552;10.092;2022-12-31T08:34:55;100099.69;;;10.91;93.64
72285;BME280;60220;53.552;10.092;2022-12-31T08:37:30;100110.47;;;10.78;94.19
72285;BME280;60220;53.552;10.092;2022-12-31T08:40:14;100113.59;;;10.57;94.54
72285;BME280;60220;53.552;10.092;2022-12-31T08:42:59;100114.47;;;10.93;93.97
72285;BME280;60220;53.552;10.092;2022-12-31T08:45:31;100117.94;;;10.58;94.13
72285;BME280;60220;53.552;10.092;2022-12-31T08:48:11;100119.53;;;10.65;94.82
72285;BME280;60220;53.552;10.092;2022-12-31T08:50:45;100114.88;;;11.12;94.27
72285;BME280;60220;53.552;10.092;2022-12-31T08:53:12;100111.34;;;11.13;93.75
72285;BME280;60220;53.552;10.092;2022-12-31T08:55:39;100120.69;;;10.91;93.35
72285;BME280;60220;53.552;10.092;2022-12-31T08:58:16;100114.88;;;11.12;92.48
72285;BME280;60220;53.552;10.092;2022-12-31T09:00:49;100110.94;;;10.96;93.96
72285;BME280;60220;53.552;10.092;2022-12-31T09:03:27;100105.63;;;11.31;92.36
72285;BME280;60220;53.552;10.092;2022-12-31T09:06:06;100104.34;;;11.13;92.59
72285;BME280;60220;53.552;10.092;2022-12-31T09:08:42;100096.59;;;11.41;92.03
72285;BME280;60220;53.552;10.092;2022-12-31T09:11:17;100099.41;;;11.35;91.50
72285;BME280;60220;53.552;10.092;2022-12-31T09:14:04;100103.59;;;11.08;92.46
72285;BME280;60220;53.552;10.092;2022-12-31T09:16:47;100106.00;;;11.50;91.76
72285;BME280;60220;53.552;10.092;2022-12-31T09:19:15;100112.28;;;11.44;92.17
72285;BME280;60220;53.552;10.092;2022-12-31T09:21:43;100113.97;;;11.13;93.29
72285;BME280;60220;53.552;10.092;2022-12-31T09:24:11;100108.13;;;11.36;92.65
72285;BME280;60220;53.552;10.092;2022-12-31T09:26:47;100111.41;;;11.45;92.05
72285;BME280;60220;53.552;10.092;2022-12-31T09:29:27;100116.22;;;11.28;91.81
72285;BME280;60220;53.552;10.092;2022-12-31T09:32:00;100116.44;;;11.19;93.54
72285;BME280;60220;53.552;10.092;2022-12-31T09:34:35;100129.72;;;11.14;93.71
72285;BME280;60220;53.552;10.092;2022-12-31T09:37:08;100121.22;;;11.37;93.22
72285;BME280;60220;53.552;10.092;2022-12-31T09:39:43;100123.38;;;11.55;92.57
72285;BME280;60220;53.552;10.092;2022-12-31T09:42:44;100125.13;;;11.21;93.26
72285;BME280;60220;53.552;10.092;2022-12-31T09:45:38;100133.56;;;11.35;93.43
72285;BME280;60220;53.552;10.092;2022-12-31T09:48:48;100125.81;;;11.31;93.89
72285;BME280;60220;53.552;10.092;2022-12-31T09:51:27;100132.97;;;11.56;92.58
72285;BME280;60220;53.552;10.092;2022-12-31T09:54:28;100143.97;;;11.38;93.57
72285;BME280;60220;53.552;10.092;2022-12-31T09:57:24;100148.53;;;11.65;92.92
72285;BME280;60220;53.552;10.092;2022-12-31T09:59:59;100134.09;;;11.14;93.82
72285;BME280;60220;53.552;10.092;2022-12-31T10:02:42;100132.06;;;11.25;95.42
72285;BME280;60220;53.552;10.092;2022-12-31T10:05:32;100126.72;;;11.28;97.87
72285;BME280;60220;53.552;10.092;2022-12-31T10:08:13;100126.72;;;11.28;96.21
72285;BME280;60220;53.552;10.092;2022-12-31T10:10:52;100114.13;;;11.41;94.80
72285;BME280;60220;53.552;10.092;2022-12-31T10:13:35;100115.22;;;11.32;95.20
72285;BME280;60220;53.552;10.092;2022-12-31T10:16:32;100118.06;;;11.25;94.88
72285;BME280;60220;53.552;10.092;2022-12-31T10:19:39;100118.44;;;11.43;95.50
72285;BME280;60220;53.552;10.092;2022-12-31T10:22:22;100124.31;;;11.53;94.27
72285;BME280;60220;53.552;10.092;2022-12-31T10:25:05;100103.22;;;11.22;95.72
72285;BME280;60220;53.552;10.092;2022-12-31T10:27:48;100110.66;;;11.40;95.44
72285;BME280;60220;53.552;10.092;2022-12-31T10:30:19;100111.53;;;11.72;94.57
72285;BME280;60220;53.552;10.092;2022-12-31T10:32:58;100103.97;;;11.27;95.63
72285;BME280;60220;53.552;10.092;2022-12-31T10:35:38;100102.47;;;11.83;94.08
72285;BME280;60220;53.552;10.092;2022-12-31T10:38:19;100096.00;;;11.62;93.38
72285;BME280;60220;53.552;10.092;2022-12-31T10:47:18;100079.66;;;11.51;95.55
72285;BME280;60220;53.552;10.092;2022-12-31T10:53:34;100106.38;;;11.69;95.14
72285;BME280;60220;53.552;10.092;2022-12-31T10:56:37;100098.41;;;11.39;95.57
72285;BME280;60220;53.552;10.092;2022-12-31T10:59:47;100094.69;;;11.46;95.64
72285;BME280;60220;53.552;10.092;2022-12-31T11:02:41;100087.19;;;11.65;94.64
72285;BME280;60220;53.552;10.092;2022-12-31T11:05:44;100093.44;;;11.92;94.35
72285;BME280;60220;53.552;10.092;2022-12-31T11:08:29;100097.19;;;11.85;93.71
72285;BME280;60220;53.552;10.092;2022-12-31T11:11:15;100084.63;;;11.94;94.89
72285;BME280;60220;53.552;10.092;2022-12-31T11:14:01;100077.03;;;12.42;93.49
72285;BME280;60220;53.552;10.092;2022-12-31T11:16:46;100095.47;;;12.13;93.22
72285;BME280;60220;53.552;10.092;2022-12-31T11:19:23;100092.22;;;12.05;95.83
72285;BME280;60220;53.552;10.092;2022-12-31T11:22:18;100091.97;;;12.40;94.82
72285;BME280;60220;53.552;10.092;2022-12-31T11:25:12;100103.94;;;12.23;94.13
72285;BME280;60220;53.552;10.092;2022-12-31T11:27:52;100109.91;;;12.29;94.79
72285;BME280;60220;53.552;10.092;2022-12-31T11:30:26;100115.22;;;12.26;95.71
72285;BME280;60220;53.552;10.092;2022-12-31T11:33:02;100086.81;;;12.37;95.27
72285;BME280;60220;53.552;10.092;2022-12-31T11:35:41;100095.00;;;12.56;94.64
72285;BME280;60220;53.552;10.092;2022-12-31T11:38:20;100105.06;;;12.43;94.78
72285;BME280;60220;53.552;10.092;2022-12-31T11:40:54;100103.69;;;12.60;94.49
72285;BME280;60220;53.552;10.092;2022-12-31T11:43:27;100111.91;;;12.49;94.66
72285;BME280;60220;53.552;10.092;2022-12-31T11:46:20;100114.66;;;12.74;93.46
72285;BME280;60220;53.552;10.092;2022-12-31T11:49:09;100122.97;;;12.88;93.40
72285;BME280;60220;53.552;10.092;2022-12-31T11:51:51;100118.59;;;12.87;92.63
72285;BME280;60220;53.552;10.092;2022-12-31T11:54:41;100114.69;;;12.72;92.85
72285;BME280;60220;53.552;10.092;2022-12-31T11:57:23;100117.97;;;13.05;92.66
72285;BME280;60220;53.552;10.092;2022-12-31T11:59:55;100106.06;;;12.95;91.65
72285;BME280;60220;53.552;10.092;2022-12-31T12:02:27;100101.59;;;12.97;91.57
72285;BME280;60220;53.552;10.092;2022-12-31T12:04:59;100112.63;;;13.08;91.07
72285;BME280;60220;53.552;10.092;2022-12-31T12:07:27;100109.13;;;13.08;90.05
72285;BME280;60220;53.552;10.092;2022-12-31T12:10:05;100102.28;;;13.02;90.34
72285;BME280;60220;53.552;10.092;2022-12-31T12:12:41;100078.59;;;13.28;89.60
72285;BME280;60220;53.552;10.092;2022-12-31T12:15:12;100082.78;;;13.59;87.03
72285;BME280;60220;53.552;10.092;2022-12-31T12:17:42;100073.94;;;13.35;87.19
72285;BME280;60220;53.552;10.092;2022-12-31T12:20:15;100064.38;;;13.32;87.76
72285;BME280;60220;53.552;10.092;2022-12-31T12:22:47;100078.16;;;13.41;88.02
72285;BME280;60220;53.552;10.092;2022-12-31T12:25:19;100078.09;;;13.17;88.25
72285;BME280;60220;53.552;10.092;2022-12-31T12:27:47;100091.50;;;13.36;87.80
72285;BME280;60220;53.552;10.092;2022-12-31T12:30:21;100070.25;;;13.41;86.68
72285;BME280;60220;53.552;10.092;2022-12-31T12:32:52;100067.31;;;13.25;87.49
72285;BME280;60220;53.552;10.092;2022-12-31T12:35:25;100080.38;;;13.53;86.22
72285;BME280;60220;53.552;10.092;2022-12-31T12:37:59;100088.28;;;13.53;85.98
72285;BME280;60220;53.552;10.092;2022-12-31T12:40:28;100073.41;;;13.50;86.35
72285;BME280;60220;53.552;10.092;2022-12-31T12:42:55;100079.78;;;13.45;85.96
72285;BME280;60220;53.552;10.092;2022-12-31T12:45:26;100068.44;;;13.66;84.92
72285;BME280;60220;53.552;10.092;2022-12-31T12:47:55;100080.56;;;13.71;84.99
72285;BME280;60220;53.552;10.092;2022-12-31T12:50:31;100070.88;;;13.72;85.27
72285;BME280;60220;53.552;10.092;2022-12-31T12:53:13;100055.88;;;13.74;85.59
72285;BME280;60220;53.552;10.092;2022-12-31T12:55:52;100062.41;;;13.87;84.52
72285;BME280;60220;53.552;10.092;2022-12-31T12:58:36;100073.38;;;13.75;84.97
72285;BME280;60220;53.552;10.092;2022-12-31T13:01:15;100074.19;;;13.77;84.71
72285;BME280;60220;53.552;10.092;2022-12-31T13:04:20;100082.00;;;13.55;85.47
72285;BME280;60220;53.552;10.092;2022-12-31T13:07:10;100087.03;;;13.63;85.09
72285;BME280;60220;53.552;10.092;2022-12-31T13:09:58;100089.34;;;13.72;85.83
72285;BME280;60220;53.552;10.092;2022-12-31T13:12:38;100089.78;;;13.60;85.49
72285;BME280;60220;53.552;10.092;2022-12-31T13:15:12;100092.97;;;13.93;84.82
72285;BME280;60220;53.552;10.092;2022-12-31T13:17:52;100089.53;;;13.66;86.09
72285;BME280;60220;53.552;10.092;2022-12-31T13:20:25;100083.66;;;13.59;86.82
72285;BME280;60220;53.552;10.092;2022-12-31T13:22:59;100082.34;;;13.71;86.13
72285;BME280;60220;53.552;10.092;2022-12-31T13:25:36;100094.03;;;13.64;86.67